Terminal Aerodrome Forecast
Issued by NWS

Home | Current Version | Previous Version | Text Only | Print | Product List | Glossary On
Versions: 1 2 3 4 5 6 7 8 9 10 11 12 13 14 15 16 17 18 19 20 21 22 23 24 25 26 27 28 29 30
000
FTUS43 KDMX 221131
TAFOTM
TAF
KOTM 221131Z 2212/2312 19009KT P6SM VCTS SCT025CB BKN080 OVC150
     FM221300 VRB06KT P6SM FEW030 SCT100
     FM230300 12005KT P6SM VCTS SCT025CB BKN050 OVC080=

USA.gov is the U.S. government's official web portal to all federal, state and local government web resources and services.